BLOG, 日記

マカオのTAFと灌篮高手

一昨日のVMMCのMETERとTAF。

 

290700Z 19020G30KT 7000 -SHRA SCT022 29/27 Q1000

290500Z 2906/3012 20012KT 8000 FEW015 SCT025
TEMPO 2906/2912 20020G30KT 2000 +TSRA FEW010CB SCT020
TEMPO 2912/2918 20020G30KT 3500 SHRA FEW015CB SCT020
TEMPO 2918/2924 20020G30KT 2000 +SHRA FEW010CB SCT020
TEMPO 3000/3006 19020G30KT 3500 +SHRA FEW015CB SCT020
TEMPO 3006/3012 18015G25KT 3500 SHRA FEW015CB SCT020

いや、もうTEMPOの意味あんまなくねw

 

ところでカフェに置いてあったスラムダンクの中国語版読んだんだがやはり感動した。中国語まったっくわからんがグっときた。

 

 

我が人生のバイブルに言語の壁なし。

 

まぁ、セリフほとんど覚えてんだけどね。

 

 

安西副操縦士のログブック | パイロット ブログ


2018-08-31 | Posted in BLOG, 日記2 Comments » 

コメント2件

 TAC | 2018.08.31 14:23

VMMCは南風時のミニマ高かったですよね確か、、、
VHHHやZGGGも色々な事情で相互選択できたりできなかったり、、、

 安西 | 2018.09.02 1:50

TAC様
3600mですね。BECMGにするとキャンセルする輩いるからあえてテンポで出してるんちゃうかと疑ってます(笑)

Comment





Comment